sensor_id;sensor_type;location;lat;lon;timestamp;temperature;humidity
64599;SHT31;51008;51.504;11.548;2023-11-21T00:02:44;5.91;99.99
64599;SHT31;51008;51.504;11.548;2023-11-21T00:07:45;5.85;99.99
64599;SHT31;51008;51.504;11.548;2023-11-21T00:12:46;5.81;99.99
64599;SHT31;51008;51.504;11.548;2023-11-21T00:17:47;5.79;99.99
64599;SHT31;51008;51.504;11.548;2023-11-21T00:22:48;5.78;99.99
64599;SHT31;51008;51.504;11.548;2023-11-21T00:27:49;5.75;99.99
64599;SHT31;51008;51.504;11.548;2023-11-21T00:32:50;5.78;99.99
64599;SHT31;51008;51.504;11.548;2023-11-21T00:37:51;5.79;99.99
64599;SHT31;51008;51.504;11.548;2023-11-21T00:42:52;5.78;99.99
64599;SHT31;51008;51.504;11.548;2023-11-21T00:47:53;5.71;99.99
64599;SHT31;51008;51.504;11.548;2023-11-21T00:52:54;5.61;99.99
64599;SHT31;51008;51.504;11.548;2023-11-21T00:57:56;5.55;99.99
64599;SHT31;51008;51.504;11.548;2023-11-21T01:02:57;5.55;99.99
64599;SHT31;51008;51.504;11.548;2023-11-21T01:07:58;5.53;99.99
64599;SHT31;51008;51.504;11.548;2023-11-21T01:12:59;5.42;99.99
64599;SHT31;51008;51.504;11.548;2023-11-21T01:18:00;5.40;99.99
64599;SHT31;51008;51.504;11.548;2023-11-21T01:23:01;5.40;99.99
64599;SHT31;51008;51.504;11.548;2023-11-21T01:28:02;5.39;99.99
64599;SHT31;51008;51.504;11.548;2023-11-21T01:33:03;5.42;99.99
64599;SHT31;51008;51.504;11.548;2023-11-21T01:38:05;5.46;99.99
64599;SHT31;51008;51.504;11.548;2023-11-21T01:43:06;5.63;99.99
64599;SHT31;51008;51.504;11.548;2023-11-21T01:48:08;5.71;99.99
64599;SHT31;51008;51.504;11.548;2023-11-21T01:53:11;5.85;99.99
64599;SHT31;51008;51.504;11.548;2023-11-21T01:58:12;5.92;99.99
64599;SHT31;51008;51.504;11.548;2023-11-21T02:03:13;5.97;99.99
64599;SHT31;51008;51.504;11.548;2023-11-21T02:08:14;6.05;99.99
64599;SHT31;51008;51.504;11.548;2023-11-21T02:13:17;6.08;99.99
64599;SHT31;51008;51.504;11.548;2023-11-21T02:18:18;6.10;99.99
64599;SHT31;51008;51.504;11.548;2023-11-21T02:23:19;6.12;99.99
64599;SHT31;51008;51.504;11.548;2023-11-21T02:28:21;6.12;99.99
64599;SHT31;51008;51.504;11.548;2023-11-21T02:33:22;6.13;99.99
64599;SHT31;51008;51.504;11.548;2023-11-21T02:38:23;6.12;99.99
64599;SHT31;51008;51.504;11.548;2023-11-21T02:43:25;6.12;99.99
64599;SHT31;51008;51.504;11.548;2023-11-21T02:48:26;6.13;99.99
64599;SHT31;51008;51.504;11.548;2023-11-21T02:53:27;6.13;99.99
64599;SHT31;51008;51.504;11.548;2023-11-21T02:58:28;6.15;99.99
64599;SHT31;51008;51.504;11.548;2023-11-21T03:03:48;6.17;99.99
64599;SHT31;51008;51.504;11.548;2023-11-21T03:08:55;6.15;99.99
64599;SHT31;51008;51.504;11.548;2023-11-21T03:13:57;6.13;99.99
64599;SHT31;51008;51.504;11.548;2023-11-21T03:18:58;6.06;99.99
64599;SHT31;51008;51.504;11.548;2023-11-21T03:23:59;6.01;99.99
64599;SHT31;51008;51.504;11.548;2023-11-21T03:29:00;5.92;99.99
64599;SHT31;51008;51.504;11.548;2023-11-21T03:34:01;5.78;99.99
64599;SHT31;51008;51.504;11.548;2023-11-21T03:39:03;5.72;99.99
64599;SHT31;51008;51.504;11.548;2023-11-21T03:44:04;5.67;99.99
64599;SHT31;51008;51.504;11.548;2023-11-21T03:49:05;5.57;99.99
64599;SHT31;51008;51.504;11.548;2023-11-21T03:54:06;5.55;99.99
64599;SHT31;51008;51.504;11.548;2023-11-21T03:59:07;5.57;99.99
64599;SHT31;51008;51.504;11.548;2023-11-21T04:04:09;5.58;99.99
64599;SHT31;51008;51.504;11.548;2023-11-21T04:09:10;5.57;99.99
64599;SHT31;51008;51.504;11.548;2023-11-21T04:14:11;5.65;99.99
64599;SHT31;51008;51.504;11.548;2023-11-21T04:19:12;5.72;99.99
64599;SHT31;51008;51.504;11.548;2023-11-21T04:24:13;5.81;99.99
64599;SHT31;51008;51.504;11.548;2023-11-21T04:29:14;5.87;99.99
64599;SHT31;51008;51.504;11.548;2023-11-21T04:34:15;5.91;99.99
64599;SHT31;51008;51.504;11.548;2023-11-21T04:39:16;5.88;99.99
64599;SHT31;51008;51.504;11.548;2023-11-21T04:44:17;5.92;99.99
64599;SHT31;51008;51.504;11.548;2023-11-21T04:49:19;5.98;99.99
64599;SHT31;51008;51.504;11.548;2023-11-21T04:54:20;5.99;99.99
64599;SHT31;51008;51.504;11.548;2023-11-21T04:59:21;6.02;99.99
64599;SHT31;51008;51.504;11.548;2023-11-21T05:04:22;6.03;99.99
64599;SHT31;51008;51.504;11.548;2023-11-21T05:09:23;6.09;99.99
64599;SHT31;51008;51.504;11.548;2023-11-21T05:14:24;6.12;99.99
64599;SHT31;51008;51.504;11.548;2023-11-21T05:19:25;6.13;99.99
64599;SHT31;51008;51.504;11.548;2023-11-21T05:24:26;6.17;99.99
64599;SHT31;51008;51.504;11.548;2023-11-21T05:29:27;6.16;99.99
64599;SHT31;51008;51.504;11.548;2023-11-21T05:34:28;6.19;99.99
64599;SHT31;51008;51.504;11.548;2023-11-21T05:39:29;6.19;99.99
64599;SHT31;51008;51.504;11.548;2023-11-21T05:44:30;6.20;99.99
64599;SHT31;51008;51.504;11.548;2023-11-21T05:49:31;6.23;99.99
64599;SHT31;51008;51.504;11.548;2023-11-21T05:54:32;6.25;99.99
64599;SHT31;51008;51.504;11.548;2023-11-21T05:59:33;6.30;99.99
64599;SHT31;51008;51.504;11.548;2023-11-21T06:04:34;6.37;99.99
64599;SHT31;51008;51.504;11.548;2023-11-21T06:09:36;6.41;99.99
64599;SHT31;51008;51.504;11.548;2023-11-21T06:14:37;6.43;99.99
64599;SHT31;51008;51.504;11.548;2023-11-21T06:19:39;6.44;99.99
64599;SHT31;51008;51.504;11.548;2023-11-21T06:24:43;6.47;99.99
64599;SHT31;51008;51.504;11.548;2023-11-21T06:29:44;6.51;99.99
64599;SHT31;51008;51.504;11.548;2023-11-21T06:34:45;6.54;99.99
64599;SHT31;51008;51.504;11.548;2023-11-21T06:39:46;6.61;99.99
64599;SHT31;51008;51.504;11.548;2023-11-21T06:44:47;6.63;99.99
64599;SHT31;51008;51.504;11.548;2023-11-21T06:49:48;6.67;99.99
64599;SHT31;51008;51.504;11.548;2023-11-21T06:54:49;6.74;99.99
64599;SHT31;51008;51.504;11.548;2023-11-21T06:59:50;6.81;99.99
64599;SHT31;51008;51.504;11.548;2023-11-21T07:04:51;6.85;99.99
64599;SHT31;51008;51.504;11.548;2023-11-21T07:09:52;6.91;99.99
64599;SHT31;51008;51.504;11.548;2023-11-21T07:14:54;6.99;99.99
64599;SHT31;51008;51.504;11.548;2023-11-21T07:19:55;7.00;99.99
64599;SHT31;51008;51.504;11.548;2023-11-21T07:24:56;7.05;99.99
64599;SHT31;51008;51.504;11.548;2023-11-21T07:29:57;7.06;99.99
64599;SHT31;51008;51.504;11.548;2023-11-21T07:34:58;7.10;99.99
64599;SHT31;51008;51.504;11.548;2023-11-21T07:39:59;7.17;99.99
64599;SHT31;51008;51.504;11.548;2023-11-21T07:45:00;7.22;99.99
64599;SHT31;51008;51.504;11.548;2023-11-21T07:50:05;7.24;99.99
64599;SHT31;51008;51.504;11.548;2023-11-21T07:55:06;7.30;99.99
64599;SHT31;51008;51.504;11.548;2023-11-21T08:00:08;7.33;99.99
64599;SHT31;51008;51.504;11.548;2023-11-21T08:05:13;7.35;99.99
64599;SHT31;51008;51.504;11.548;2023-11-21T08:10:14;7.35;99.99
64599;SHT31;51008;51.504;11.548;2023-11-21T08:15:15;7.30;99.99
64599;SHT31;51008;51.504;11.548;2023-11-21T08:20:16;7.22;99.99
64599;SHT31;51008;51.504;11.548;2023-11-21T08:25:18;7.07;99.99
64599;SHT31;51008;51.504;11.548;2023-11-21T08:30:19;6.96;99.99
64599;SHT31;51008;51.504;11.548;2023-11-21T08:35:20;6.92;99.99
64599;SHT31;51008;51.504;11.548;2023-11-21T08:40:21;6.88;99.99
64599;SHT31;51008;51.504;11.548;2023-11-21T08:45:22;6.88;99.99
64599;SHT31;51008;51.504;11.548;2023-11-21T08:50:23;6.86;99.99
64599;SHT31;51008;51.504;11.548;2023-11-21T08:55:24;6.78;99.99
64599;SHT31;51008;51.504;11.548;2023-11-21T09:00:25;6.74;99.99
64599;SHT31;51008;51.504;11.548;2023-11-21T09:05:26;6.67;99.99
64599;SHT31;51008;51.504;11.548;2023-11-21T09:10:28;6.63;99.99
64599;SHT31;51008;51.504;11.548;2023-11-21T09:15:29;6.58;99.99
64599;SHT31;51008;51.504;11.548;2023-11-21T09:20:30;6.51;99.99
64599;SHT31;51008;51.504;11.548;2023-11-21T09:25:31;6.34;99.99
64599;SHT31;51008;51.504;11.548;2023-11-21T09:30:32;6.27;99.99
64599;SHT31;51008;51.504;11.548;2023-11-21T09:35:33;6.22;99.99
64599;SHT31;51008;51.504;11.548;2023-11-21T09:40:34;6.25;99.99
64599;SHT31;51008;51.504;11.548;2023-11-21T09:45:35;6.23;99.99
64599;SHT31;51008;51.504;11.548;2023-11-21T09:50:41;6.27;99.99
64599;SHT31;51008;51.504;11.548;2023-11-21T09:55:44;6.23;99.99
64599;SHT31;51008;51.504;11.548;2023-11-21T10:00:47;6.13;99.99
64599;SHT31;51008;51.504;11.548;2023-11-21T10:05:50;6.19;99.99
64599;SHT31;51008;51.504;11.548;2023-11-21T10:10:53;6.22;99.99
64599;SHT31;51008;51.504;11.548;2023-11-21T10:15:55;6.20;99.99
64599;SHT31;51008;51.504;11.548;2023-11-21T10:20:56;6.19;99.99
64599;SHT31;51008;51.504;11.548;2023-11-21T10:25:58;6.13;99.99
64599;SHT31;51008;51.504;11.548;2023-11-21T10:31:00;6.17;99.99
64599;SHT31;51008;51.504;11.548;2023-11-21T10:36:01;6.25;99.99
64599;SHT31;51008;51.504;11.548;2023-11-21T10:41:02;6.19;99.99
64599;SHT31;51008;51.504;11.548;2023-11-21T10:46:04;6.15;99.99
64599;SHT31;51008;51.504;11.548;2023-11-21T10:51:09;6.17;99.99
64599;SHT31;51008;51.504;11.548;2023-11-21T10:56:13;6.08;99.99
64599;SHT31;51008;51.504;11.548;2023-11-21T11:01:18;5.91;99.99
64599;SHT31;51008;51.504;11.548;2023-11-21T11:06:19;5.84;99.99
64599;SHT31;51008;51.504;11.548;2023-11-21T11:11:21;5.84;99.99
64599;SHT31;51008;51.504;11.548;2023-11-21T11:16:22;5.79;99.99
64599;SHT31;51008;51.504;11.548;2023-11-21T11:21:53;5.74;99.99
64599;SHT31;51008;51.504;11.548;2023-11-21T11:32:20;5.65;99.99
64599;SHT31;51008;51.504;11.548;2023-11-21T11:37:23;5.71;99.99
64599;SHT31;51008;51.504;11.548;2023-11-21T11:42:24;5.65;99.99
64599;SHT31;51008;51.504;11.548;2023-11-21T11:52:39;5.64;99.99
64599;SHT31;51008;51.504;11.548;2023-11-21T11:57:42;5.53;99.99
64599;SHT31;51008;51.504;11.548;2023-11-21T12:02:47;5.54;99.99
64599;SHT31;51008;51.504;11.548;2023-11-21T12:07:56;5.53;99.99
64599;SHT31;51008;51.504;11.548;2023-11-21T12:13:09;5.54;99.99
64599;SHT31;51008;51.504;11.548;2023-11-21T12:18:10;5.47;99.80
64599;SHT31;51008;51.504;11.548;2023-11-21T12:23:11;5.47;99.89
64599;SHT31;51008;51.504;11.548;2023-11-21T12:28:12;5.33;99.32
64599;SHT31;51008;51.504;11.548;2023-11-21T12:33:13;5.19;98.93
64599;SHT31;51008;51.504;11.548;2023-11-21T12:38:14;5.13;98.72
64599;SHT31;51008;51.504;11.548;2023-11-21T12:43:17;5.08;99.01
64599;SHT31;51008;51.504;11.548;2023-11-21T12:48:18;5.08;98.93
64599;SHT31;51008;51.504;11.548;2023-11-21T12:53:19;5.05;98.83
64599;SHT31;51008;51.504;11.548;2023-11-21T12:58:20;5.05;99.15
64599;SHT31;51008;51.504;11.548;2023-11-21T13:03:22;5.09;99.29
64599;SHT31;51008;51.504;11.548;2023-11-21T13:08:26;5.15;99.24
64599;SHT31;51008;51.504;11.548;2023-11-21T13:13:30;5.12;99.09
64599;SHT31;51008;51.504;11.548;2023-11-21T13:18:31;5.16;98.88
64599;SHT31;51008;51.504;11.548;2023-11-21T13:23:34;5.12;98.79
64599;SHT31;51008;51.504;11.548;2023-11-21T13:28:36;5.11;98.48
64599;SHT31;51008;51.504;11.548;2023-11-21T13:33:37;5.12;98.37
64599;SHT31;51008;51.504;11.548;2023-11-21T13:38:38;5.07;98.02
64599;SHT31;51008;51.504;11.548;2023-11-21T13:43:39;5.08;97.90
64599;SHT31;51008;51.504;11.548;2023-11-21T13:48:40;5.15;98.13
64599;SHT31;51008;51.504;11.548;2023-11-21T13:53:42;5.16;98.19
64599;SHT31;51008;51.504;11.548;2023-11-21T13:58:43;5.13;97.59
64599;SHT31;51008;51.504;11.548;2023-11-21T14:03:44;5.05;97.16
64599;SHT31;51008;51.504;11.548;2023-11-21T14:08:45;5.01;96.81
64599;SHT31;51008;51.504;11.548;2023-11-21T14:13:46;4.94;96.45
64599;SHT31;51008;51.504;11.548;2023-11-21T14:18:47;4.87;96.86
64599;SHT31;51008;51.504;11.548;2023-11-21T14:23:48;4.85;97.19
64599;SHT31;51008;51.504;11.548;2023-11-21T14:28:49;4.84;97.25
64599;SHT31;51008;51.504;11.548;2023-11-21T14:33:50;4.83;97.13
64599;SHT31;51008;51.504;11.548;2023-11-21T14:38:51;4.80;96.74
64599;SHT31;51008;51.504;11.548;2023-11-21T14:43:52;4.81;96.01
64599;SHT31;51008;51.504;11.548;2023-11-21T14:48:53;4.71;95.86
64599;SHT31;51008;51.504;11.548;2023-11-21T14:53:54;4.63;96.02
64599;SHT31;51008;51.504;11.548;2023-11-21T14:58:57;4.64;96.54
64599;SHT31;51008;51.504;11.548;2023-11-21T15:03:58;4.58;97.11
64599;SHT31;51008;51.504;11.548;2023-11-21T15:08:59;4.57;97.17
64599;SHT31;51008;51.504;11.548;2023-11-21T15:14:00;4.54;96.42
64599;SHT31;51008;51.504;11.548;2023-11-21T15:19:01;4.38;95.35
64599;SHT31;51008;51.504;11.548;2023-11-21T15:24:03;4.28;94.24
64599;SHT31;51008;51.504;11.548;2023-11-21T15:29:04;4.19;94.30
64599;SHT31;51008;51.504;11.548;2023-11-21T15:34:05;4.11;93.31
64599;SHT31;51008;51.504;11.548;2023-11-21T15:39:06;4.05;91.86
64599;SHT31;51008;51.504;11.548;2023-11-21T15:44:07;3.93;91.72
64599;SHT31;51008;51.504;11.548;2023-11-21T15:49:10;3.81;91.24
64599;SHT31;51008;51.504;11.548;2023-11-21T15:54:11;3.74;89.58
64599;SHT31;51008;51.504;11.548;2023-11-21T15:59:12;3.64;90.49
64599;SHT31;51008;51.504;11.548;2023-11-21T16:04:13;3.62;90.50
64599;SHT31;51008;51.504;11.548;2023-11-21T16:09:14;3.59;90.31
64599;SHT31;51008;51.504;11.548;2023-11-21T16:14:15;3.63;90.20
64599;SHT31;51008;51.504;11.548;2023-11-21T16:19:16;3.63;89.50
64599;SHT31;51008;51.504;11.548;2023-11-21T16:24:17;3.60;89.23
64599;SHT31;51008;51.504;11.548;2023-11-21T16:29:18;3.55;88.99
64599;SHT31;51008;51.504;11.548;2023-11-21T16:34:20;3.53;89.60
64599;SHT31;51008;51.504;11.548;2023-11-21T16:39:21;3.50;89.52
64599;SHT31;51008;51.504;11.548;2023-11-21T16:44:22;3.49;90.05
64599;SHT31;51008;51.504;11.548;2023-11-21T16:49:23;3.52;90.18
64599;SHT31;51008;51.504;11.548;2023-11-21T16:54:24;3.49;90.36
64599;SHT31;51008;51.504;11.548;2023-11-21T16:59:25;3.48;90.88
64599;SHT31;51008;51.504;11.548;2023-11-21T17:04:27;3.49;90.72
64599;SHT31;51008;51.504;11.548;2023-11-21T17:09:28;3.48;90.97
64599;SHT31;51008;51.504;11.548;2023-11-21T17:14:29;3.42;90.99
64599;SHT31;51008;51.504;11.548;2023-11-21T17:19:30;3.39;91.00
64599;SHT31;51008;51.504;11.548;2023-11-21T17:24:31;3.39;91.25
64599;SHT31;51008;51.504;11.548;2023-11-21T17:29:32;3.39;91.58
64599;SHT31;51008;51.504;11.548;2023-11-21T17:34:33;3.42;91.81
64599;SHT31;51008;51.504;11.548;2023-11-21T17:39:34;3.40;92.57
64599;SHT31;51008;51.504;11.548;2023-11-21T17:44:35;3.42;92.79
64599;SHT31;51008;51.504;11.548;2023-11-21T17:49:36;3.40;93.00
64599;SHT31;51008;51.504;11.548;2023-11-21T17:54:37;3.46;92.65
64599;SHT31;51008;51.504;11.548;2023-11-21T17:59:41;3.43;92.29
64599;SHT31;51008;51.504;11.548;2023-11-21T18:04:42;3.46;92.63
64599;SHT31;51008;51.504;11.548;2023-11-21T18:09:43;3.49;91.58
64599;SHT31;51008;51.504;11.548;2023-11-21T18:14:45;3.43;91.00
64599;SHT31;51008;51.504;11.548;2023-11-21T18:19:46;3.38;91.29
64599;SHT31;51008;51.504;11.548;2023-11-21T18:24:47;3.38;90.90
64599;SHT31;51008;51.504;11.548;2023-11-21T18:29:48;3.33;90.73
64599;SHT31;51008;51.504;11.548;2023-11-21T18:34:49;3.33;90.35
64599;SHT31;51008;51.504;11.548;2023-11-21T18:39:50;3.31;90.79
64599;SHT31;51008;51.504;11.548;2023-11-21T18:44:51;3.31;90.72
64599;SHT31;51008;51.504;11.548;2023-11-21T18:49:53;3.32;91.37
64599;SHT31;51008;51.504;11.548;2023-11-21T18:54:54;3.33;91.86
64599;SHT31;51008;51.504;11.548;2023-11-21T18:59:55;3.32;92.08
64599;SHT31;51008;51.504;11.548;2023-11-21T19:04:56;3.31;91.42
64599;SHT31;51008;51.504;11.548;2023-11-21T19:09:57;3.24;91.15
64599;SHT31;51008;51.504;11.548;2023-11-21T19:14:58;3.16;90.43
64599;SHT31;51008;51.504;11.548;2023-11-21T19:19:59;3.11;90.44
64599;SHT31;51008;51.504;11.548;2023-11-21T19:25:00;3.08;90.69
64599;SHT31;51008;51.504;11.548;2023-11-21T19:30:01;3.04;90.79
64599;SHT31;51008;51.504;11.548;2023-11-21T19:35:03;3.08;90.73
64599;SHT31;51008;51.504;11.548;2023-11-21T19:40:05;3.11;90.78
64599;SHT31;51008;51.504;11.548;2023-11-21T19:45:06;3.14;90.17
64599;SHT31;51008;51.504;11.548;2023-11-21T19:50:08;3.07;88.93
64599;SHT31;51008;51.504;11.548;2023-11-21T19:55:10;2.93;85.31
64599;SHT31;51008;51.504;11.548;2023-11-21T20:00:11;2.83;84.88
64599;SHT31;51008;51.504;11.548;2023-11-21T20:05:12;2.72;85.04
64599;SHT31;51008;51.504;11.548;2023-11-21T20:10:13;2.62;84.98
64599;SHT31;51008;51.504;11.548;2023-11-21T20:15:14;2.57;85.53
64599;SHT31;51008;51.504;11.548;2023-11-21T20:20:15;2.53;85.73
64599;SHT31;51008;51.504;11.548;2023-11-21T20:25:16;2.44;86.11
64599;SHT31;51008;51.504;11.548;2023-11-21T20:30:17;2.42;86.46
64599;SHT31;51008;51.504;11.548;2023-11-21T20:35:19;2.44;87.18
64599;SHT31;51008;51.504;11.548;2023-11-21T20:40:20;2.38;87.40
64599;SHT31;51008;51.504;11.548;2023-11-21T20:45:21;2.32;87.43
64599;SHT31;51008;51.504;11.548;2023-11-21T20:50:22;2.28;87.00
64599;SHT31;51008;51.504;11.548;2023-11-21T20:55:23;2.27;87.26
64599;SHT31;51008;51.504;11.548;2023-11-21T21:00:24;2.15;87.12
64599;SHT31;51008;51.504;11.548;2023-11-21T21:05:25;2.07;87.27
64599;SHT31;51008;51.504;11.548;2023-11-21T21:10:26;2.00;87.36
64599;SHT31;51008;51.504;11.548;2023-11-21T21:15:27;1.93;87.62
64599;SHT31;51008;51.504;11.548;2023-11-21T21:20:28;1.82;87.40
64599;SHT31;51008;51.504;11.548;2023-11-21T21:25:29;1.74;87.98
64599;SHT31;51008;51.504;11.548;2023-11-21T21:30:30;1.73;88.04
64599;SHT31;51008;51.504;11.548;2023-11-21T21:35:32;1.67;87.59
64599;SHT31;51008;51.504;11.548;2023-11-21T21:40:33;1.55;87.24
64599;SHT31;51008;51.504;11.548;2023-11-21T21:45:34;1.41;87.90
64599;SHT31;51008;51.504;11.548;2023-11-21T21:50:37;1.27;88.54
64599;SHT31;51008;51.504;11.548;2023-11-21T21:55:41;1.17;88.86
64599;SHT31;51008;51.504;11.548;2023-11-21T22:00:43;1.05;89.38
64599;SHT31;51008;51.504;11.548;2023-11-21T22:05:44;0.99;89.07
64599;SHT31;51008;51.504;11.548;2023-11-21T22:10:45;0.89;89.44
64599;SHT31;51008;51.504;11.548;2023-11-21T22:15:46;0.79;89.85
64599;SHT31;51008;51.504;11.548;2023-11-21T22:20:47;0.72;89.97
64599;SHT31;51008;51.504;11.548;2023-11-21T22:25:48;0.66;90.33
64599;SHT31;51008;51.504;11.548;2023-11-21T22:30:49;0.52;90.84
64599;SHT31;51008;51.504;11.548;2023-11-21T22:35:51;0.41;91.12
64599;SHT31;51008;51.504;11.548;2023-11-21T22:40:52;0.37;91.26
64599;SHT31;51008;51.504;11.548;2023-11-21T22:45:53;0.25;91.69
64599;SHT31;51008;51.504;11.548;2023-11-21T22:50:54;0.24;91.96
64599;SHT31;51008;51.504;11.548;2023-11-21T22:55:55;0.18;92.02
64599;SHT31;51008;51.504;11.548;2023-11-21T23:00:56;0.11;92.08
64599;SHT31;51008;51.504;11.548;2023-11-21T23:05:58;0.10;92.05
64599;SHT31;51008;51.504;11.548;2023-11-21T23:11:00;0.06;91.90
64599;SHT31;51008;51.504;11.548;2023-11-21T23:16:01;-0.01;91.89
64599;SHT31;51008;51.504;11.548;2023-11-21T23:21:02;-0.05;92.00
64599;SHT31;51008;51.504;11.548;2023-11-21T23:26:03;-0.13;91.99
64599;SHT31;51008;51.504;11.548;2023-11-21T23:31:04;-0.15;91.98
64599;SHT31;51008;51.504;11.548;2023-11-21T23:36:06;-0.15;92.14
64599;SHT31;51008;51.504;11.548;2023-11-21T23:41:07;-0.23;92.28
64599;SHT31;51008;51.504;11.548;2023-11-21T23:46:08;-0.25;92.49
64599;SHT31;51008;51.504;11.548;2023-11-21T23:51:09;-0.22;92.41
64599;SHT31;51008;51.504;11.548;2023-11-21T23:56:10;-0.31;92.10
